Airport ID:KJTC
Update Time (UTC):21/09/2021 14:39
Wind Speed (Knots):2
Wind Direction (Magnetic):130
Temperature (°C):12
Dew Point (°C):0
Humidity (%):42
Altimeter (inHg):30.49
Density Altitude (Feet):
Visibility:10+
Clouds (Hundreds of feet):CLR
Present Weather:
METAR:METAR KJTC 211435Z AUTO 00000KT 10SM CLR 12/M00 A3049 RMK AO2

The data displayed is for advisory purposes only and is not to be used for flight planning or operations.